createdAt,value
2022-12-05T00:01:31.265Z,100515.69
2022-12-05T00:04:01.087Z,100526.56
2022-12-05T00:06:30.134Z,100532.41
2022-12-05T00:08:58.113Z,100535.53
2022-12-05T00:11:29.435Z,100530.13
2022-12-05T00:13:59.209Z,100528.78
2022-12-05T00:16:30.795Z,100535.31
2022-12-05T00:19:00.849Z,100538.53
2022-12-05T00:21:32.822Z,100548.00
2022-12-05T00:24:01.824Z,100546.09
2022-12-05T00:26:28.818Z,100545.88
2022-12-05T00:28:58.068Z,100544.81
2022-12-05T00:31:27.016Z,100550.59
2022-12-05T00:33:55.024Z,100550.59
2022-12-05T00:36:25.953Z,100553.25
2022-12-05T00:38:54.582Z,100552.41
2022-12-05T00:41:25.547Z,100547.09
2022-12-05T00:43:53.537Z,100547.47
2022-12-05T00:46:24.172Z,100549.97
2022-12-05T00:48:54.507Z,100553.25
2022-12-05T00:51:28.786Z,100551.56
2022-12-05T00:53:59.821Z,100552.66
2022-12-05T00:56:28.393Z,100552.72
2022-12-05T00:58:57.429Z,100552.81
2022-12-05T01:01:44.942Z,100555.31
2022-12-05T01:04:16.747Z,100554.91
2022-12-05T01:06:44.447Z,100554.25
2022-12-05T01:09:16.504Z,100565.44
2022-12-05T01:11:44.261Z,100569.63
2022-12-05T01:14:13.378Z,100564.44
2022-12-05T01:16:43.139Z,100573.09
2022-12-05T01:19:18.242Z,100572.25
2022-12-05T01:21:45.119Z,100573.78
2022-12-05T01:24:12.559Z,100578.06
2022-12-05T01:26:41.662Z,100566.94
2022-12-05T01:29:08.915Z,100571.19
2022-12-05T01:31:37.634Z,100576.44
2022-12-05T01:34:10.574Z,100575.47
2022-12-05T01:36:39.261Z,100570.16
2022-12-05T01:39:08.512Z,100569.22
2022-12-05T01:41:41.239Z,100567.41
2022-12-05T01:44:11.163Z,100573.19
2022-12-05T01:46:50.883Z,100581.16
2022-12-05T01:49:27.117Z,100572.88
2022-12-05T01:51:59.004Z,100568.56
2022-12-05T01:54:26.039Z,100581.41
2022-12-05T01:57:00.044Z,100579.72
2022-12-05T01:59:33.180Z,100584.06
2022-12-05T02:02:00.418Z,100590.06
2022-12-05T02:04:27.719Z,100595.22
2022-12-05T02:06:54.966Z,100596.16
2022-12-05T02:09:22.985Z,100591.66
2022-12-05T02:12:02.156Z,100594.31
2022-12-05T02:15:23.199Z,100599.41
2022-12-05T02:18:11.082Z,100600.34
2022-12-05T02:20:59.024Z,100602.09
2022-12-05T02:24:09.002Z,100594.41
2022-12-05T02:26:51.654Z,100602.84
2022-12-05T02:29:46.218Z,100604.66
2022-12-05T02:32:29.429Z,100603.91
2022-12-05T02:35:11.378Z,100596.81
2022-12-05T02:37:48.752Z,100592.63
2022-12-05T02:40:40.589Z,100593.47
2022-12-05T02:43:13.921Z,100599.50
2022-12-05T02:45:44.198Z,100601.00
2022-12-05T02:48:14.347Z,100606.78
2022-12-05T02:50:43.300Z,100609.50
2022-12-05T02:53:14.436Z,100620.56
2022-12-05T02:55:42.488Z,100616.16
2022-12-05T02:58:20.664Z,100622.22
2022-12-05T03:00:51.050Z,100631.41
2022-12-05T03:03:21.458Z,100624.59
2022-12-05T03:06:10.529Z,100626.94
2022-12-05T03:08:49.219Z,100639.03
2022-12-05T03:11:16.341Z,100638.94
2022-12-05T03:13:50.964Z,100643.13
2022-12-05T03:16:33.937Z,100650.81
2022-12-05T03:19:18.240Z,100650.69
2022-12-05T03:22:03.501Z,100640.97
2022-12-05T03:24:31.894Z,100638.44
2022-12-05T03:27:26.689Z,100641.94
2022-12-05T03:30:02.337Z,100647.88
2022-12-05T03:33:03.660Z,100648.00
2022-12-05T03:36:11.967Z,100646.03
2022-12-05T03:38:54.714Z,100655.16
2022-12-05T03:41:49.331Z,100658.53
2022-12-05T03:44:56.378Z,100661.06
2022-12-05T03:47:42.347Z,100662.44
2022-12-05T03:50:24.376Z,100661.09
2022-12-05T03:53:21.454Z,100672.22
2022-12-05T03:55:57.925Z,100670.38
2022-12-05T03:58:38.800Z,100671.38
2022-12-05T04:01:08.678Z,100665.03
2022-12-05T04:03:51.922Z,100664.22
2022-12-05T04:06:28.707Z,100673.72
2022-12-05T04:09:05.037Z,100676.44
2022-12-05T04:11:37.803Z,100680.19
2022-12-05T04:14:14.160Z,100683.13
2022-12-05T04:17:05.498Z,100685.91
2022-12-05T04:20:06.954Z,100685.72
2022-12-05T04:22:35.101Z,100689.66
2022-12-05T04:25:24.939Z,100679.94
2022-12-05T04:28:25.132Z,100677.13
2022-12-05T04:31:40.104Z,100674.34
2022-12-05T04:34:10.162Z,100677.50
2022-12-05T04:37:02.887Z,100669.16
2022-12-05T04:39:46.145Z,100674.25
2022-12-05T04:42:19.142Z,100675.69
2022-12-05T04:45:09.145Z,100678.81
2022-12-05T04:47:42.512Z,100679.53
2022-12-05T04:50:12.285Z,100681.28
2022-12-05T04:52:40.946Z,100680.13
2022-12-05T04:55:15.326Z,100675.25
2022-12-05T04:58:08.096Z,100677.63
2022-12-05T05:01:05.672Z,100679.06
2022-12-05T05:04:10.505Z,100671.78
2022-12-05T05:06:42.415Z,100672.81
2022-12-05T05:09:10.636Z,100667.94
2022-12-05T05:11:38.381Z,100665.50
2022-12-05T05:14:05.664Z,100668.41
2022-12-05T05:16:37.772Z,100668.91
2022-12-05T05:19:06.467Z,100667.25
2022-12-05T05:21:39.456Z,100668.69
2022-12-05T05:24:09.693Z,100680.44
2022-12-05T05:26:40.991Z,100683.94
2022-12-05T05:29:09.471Z,100680.13
2022-12-05T05:31:37.662Z,100671.38
2022-12-05T05:34:09.463Z,100675.16
2022-12-05T05:36:37.620Z,100686.53
2022-12-05T05:39:06.901Z,100688.28
2022-12-05T05:41:36.320Z,100686.53
2022-12-05T05:44:04.601Z,100686.44
2022-12-05T05:46:34.971Z,100683.94
2022-12-05T05:49:02.282Z,100685.50
2022-12-05T05:51:30.213Z,100693.13
2022-12-05T05:53:58.909Z,100683.94
2022-12-05T05:56:25.887Z,100691.91
2022-12-05T05:59:03.070Z,100693.34
2022-12-05T06:01:30.972Z,100698.16
2022-12-05T06:03:58.793Z,100708.84
2022-12-05T06:06:26.649Z,100712.06
2022-12-05T06:08:54.837Z,100713.84
2022-12-05T06:11:27.388Z,100723.50
2022-12-05T06:14:02.823Z,100724.06
2022-12-05T06:16:31.680Z,100729.22
2022-12-05T06:18:59.264Z,100728.34
2022-12-05T06:21:27.068Z,100720.41
2022-12-05T06:23:54.813Z,100722.47
2022-12-05T06:26:23.073Z,100710.31
2022-12-05T06:28:50.180Z,100720.59
2022-12-05T06:31:21.939Z,100729.22
2022-12-05T06:33:48.873Z,100729.91
2022-12-05T06:36:19.406Z,100736.50
2022-12-05T06:38:46.391Z,100732.03
2022-12-05T06:41:19.765Z,100732.25
2022-12-05T06:43:47.512Z,100741.13
2022-12-05T06:46:15.941Z,100741.09
2022-12-05T06:48:42.952Z,100751.13
2022-12-05T06:51:12.452Z,100744.13
2022-12-05T06:53:39.751Z,100756.34
2022-12-05T06:56:13.944Z,100752.78
2022-12-05T06:58:46.776Z,100760.97
2022-12-05T07:01:41.120Z,100767.50
2022-12-05T07:04:23.867Z,100764.72
2022-12-05T07:06:52.887Z,100763.06
2022-12-05T07:09:44.045Z,100768.28
2022-12-05T07:12:12.093Z,100778.63
2022-12-05T07:14:47.723Z,100784.94
2022-12-05T07:17:15.216Z,100781.91
2022-12-05T07:19:42.015Z,100778.16
2022-12-05T07:22:15.189Z,100782.84
2022-12-05T07:24:43.175Z,100773.34
2022-12-05T07:27:09.996Z,100779.22
2022-12-05T07:29:36.824Z,100788.44
2022-12-05T07:32:03.979Z,100786.41
2022-12-05T07:34:30.936Z,100799.00
2022-12-05T07:36:57.786Z,100790.44
2022-12-05T07:39:24.600Z,100788.88
2022-12-05T07:41:51.452Z,100791.84
2022-12-05T07:44:18.371Z,100786.69
2022-12-05T07:46:45.200Z,100785.63
2022-12-05T07:49:12.102Z,100791.44
2022-12-05T07:51:39.027Z,100791.84
2022-12-05T07:54:06.783Z,100798.16
2022-12-05T07:56:33.951Z,100800.66
2022-12-05T07:59:01.040Z,100800.56
2022-12-05T08:01:29.851Z,100806.47
2022-12-05T08:04:00.186Z,100804.00
2022-12-05T08:06:30.586Z,100807.03
2022-12-05T08:08:58.123Z,100811.06
2022-12-05T08:11:30.120Z,100806.44
2022-12-05T08:13:58.445Z,100808.47
2022-12-05T08:16:31.029Z,100813.91
2022-12-05T08:19:02.276Z,100815.31
2022-12-05T08:21:29.753Z,100821.97
2022-12-05T08:23:57.161Z,100819.78
2022-12-05T08:26:28.232Z,100826.03
2022-12-05T08:28:59.292Z,100812.66
2022-12-05T08:31:29.127Z,100828.38
2022-12-05T08:34:00.295Z,100832.44
2022-12-05T08:36:31.553Z,100837.78
2022-12-05T08:39:02.514Z,100845.25
2022-12-05T08:41:30.240Z,100840.91
2022-12-05T08:44:02.976Z,100842.19
2022-12-05T08:46:32.151Z,100847.34
2022-12-05T08:48:59.180Z,100847.25
2022-12-05T08:51:26.178Z,100848.31
2022-12-05T08:53:53.498Z,100849.22
2022-12-05T08:56:26.601Z,100852.94
2022-12-05T08:58:58.490Z,100858.09
2022-12-05T09:01:33.336Z,100860.94
2022-12-05T09:04:02.342Z,100853.69
2022-12-05T09:06:29.940Z,100867.06
2022-12-05T09:09:00.074Z,100873.81
2022-12-05T09:11:30.467Z,100874.09
2022-12-05T09:13:59.401Z,100882.44
2022-12-05T09:16:37.478Z,100878.00
2022-12-05T09:19:08.564Z,100882.09
2022-12-05T09:21:35.467Z,100883.00
2022-12-05T09:24:02.341Z,100888.13
2022-12-05T09:26:30.302Z,100888.56
2022-12-05T09:28:57.669Z,100892.81
2022-12-05T09:31:27.249Z,100897.66
2022-12-05T09:33:55.006Z,100890.56
2022-12-05T09:36:26.281Z,100893.03
2022-12-05T09:38:54.536Z,100892.69
2022-12-05T09:41:52.014Z,100896.53
2022-12-05T09:45:04.558Z,100891.50
2022-12-05T09:48:02.533Z,100893.66
2022-12-05T09:50:48.458Z,100888.91
2022-12-05T09:53:32.729Z,100891.97
2022-12-05T09:56:14.497Z,100893.16
2022-12-05T09:58:56.161Z,100884.63
2022-12-05T10:01:38.846Z,100879.09
2022-12-05T10:04:49.414Z,100884.22
2022-12-05T10:07:44.396Z,100885.25
2022-12-05T10:10:34.643Z,100886.34
2022-12-05T10:13:38.117Z,100883.53
2022-12-05T10:16:33.727Z,100881.41
2022-12-05T10:19:07.213Z,100882.47
2022-12-05T10:22:12.046Z,100883.97
2022-12-05T10:24:52.758Z,100882.19
2022-12-05T10:27:27.720Z,100879.44
2022-12-05T10:30:06.502Z,100881.78
2022-12-05T10:33:05.010Z,100879.97
2022-12-05T10:35:39.573Z,100889.97
2022-12-05T10:38:24.910Z,100890.19
2022-12-05T10:40:58.112Z,100886.66
2022-12-05T10:43:31.716Z,100893.69
2022-12-05T10:46:00.260Z,100888.72
2022-12-05T10:48:28.132Z,100893.00
2022-12-05T10:50:57.674Z,100882.56
2022-12-05T10:53:50.071Z,100886.47
2022-12-05T10:56:41.683Z,100879.19
2022-12-05T10:59:13.229Z,100881.97
2022-12-05T11:01:53.007Z,100885.16
2022-12-05T11:04:44.462Z,100882.56
2022-12-05T11:07:27.177Z,100880.59
2022-12-05T11:09:54.712Z,100876.03
2022-12-05T11:12:26.917Z,100875.34
2022-12-05T11:15:21.922Z,100870.53
2022-12-05T11:17:50.481Z,100869.94
2022-12-05T11:20:20.299Z,100875.09
2022-12-05T11:22:50.694Z,100864.72
2022-12-05T11:25:32.151Z,100861.09
2022-12-05T11:28:21.370Z,100868.72
2022-12-05T11:31:12.291Z,100872.97
2022-12-05T11:33:40.050Z,100868.41
2022-12-05T11:36:22.144Z,100874.56
2022-12-05T11:38:49.458Z,100874.44
2022-12-05T11:41:45.551Z,100869.56
2022-12-05T11:44:49.797Z,100874.25
2022-12-05T11:48:00.169Z,100872.06
2022-12-05T11:51:00.229Z,100873.28
2022-12-05T11:53:42.988Z,100868.53
2022-12-05T11:56:36.591Z,100860.41
2022-12-05T11:59:22.574Z,100867.19
2022-12-05T12:02:26.457Z,100865.06
2022-12-05T12:05:18.598Z,100867.88
2022-12-05T12:08:15.971Z,100862.38
2022-12-05T12:11:01.261Z,100866.78
2022-12-05T12:14:07.282Z,100872.16
2022-12-05T12:17:33.989Z,100871.84
2022-12-05T12:20:35.437Z,100871.59
2022-12-05T12:23:35.647Z,100867.44
2022-12-05T12:26:33.231Z,100863.88
2022-12-05T12:29:33.653Z,100855.50
2022-12-05T12:32:21.525Z,100868.22
2022-12-05T12:35:01.308Z,100861.72
2022-12-05T12:37:53.822Z,100860.41
2022-12-05T12:40:38.333Z,100862.06
2022-12-05T12:43:56.560Z,100857.22
2022-12-05T12:46:41.202Z,100860.56
2022-12-05T12:49:45.205Z,100865.63
2022-12-05T12:52:24.507Z,100854.25
2022-12-05T12:55:04.552Z,100859.09
2022-12-05T12:58:11.198Z,100857.38
2022-12-05T13:01:01.586Z,100849.06
2022-12-05T13:03:41.868Z,100852.44
2022-12-05T13:06:38.009Z,100853.44
2022-12-05T13:09:22.140Z,100856.78
2022-12-05T13:11:50.864Z,100855.09
2022-12-05T13:14:23.430Z,100849.38
2022-12-05T13:16:54.274Z,100845.16
2022-12-05T13:19:43.374Z,100843.84
2022-12-05T13:22:11.816Z,100858.63
2022-12-05T13:24:39.190Z,100847.91
2022-12-05T13:27:13.782Z,100854.97
2022-12-05T13:30:00.005Z,100854.56
2022-12-05T13:32:40.764Z,100860.44
2022-12-05T13:35:07.484Z,100858.03
2022-12-05T13:37:53.893Z,100861.53
2022-12-05T13:40:45.736Z,100859.78
2022-12-05T13:43:23.776Z,100859.19
2022-12-05T13:46:07.346Z,100862.81
2022-12-05T13:48:38.729Z,100859.13
2022-12-05T13:51:46.598Z,100864.16
2022-12-05T13:54:23.005Z,100859.63
2022-12-05T13:56:54.593Z,100867.16
2022-12-05T14:00:01.816Z,100872.00
2022-12-05T14:02:45.471Z,100873.28
2022-12-05T14:05:22.218Z,100877.72
2022-12-05T14:07:57.477Z,100873.78
2022-12-05T14:10:36.806Z,100870.44
2022-12-05T14:13:30.178Z,100864.16
2022-12-05T14:16:42.048Z,100868.09
2022-12-05T14:19:40.899Z,100867.91
2022-12-05T14:22:22.480Z,100870.84
2022-12-05T14:25:32.798Z,100872.00
2022-12-05T14:28:35.743Z,100877.56
2022-12-05T14:31:29.294Z,100882.59
2022-12-05T14:34:22.272Z,100878.53
2022-12-05T14:37:14.853Z,100886.09
2022-12-05T14:40:01.001Z,100887.19
2022-12-05T14:42:44.134Z,100893.59
2022-12-05T14:45:33.421Z,100891.47
2022-12-05T14:48:15.427Z,100895.63
2022-12-05T14:50:51.837Z,100898.75
2022-12-05T14:53:21.461Z,100893.81
2022-12-05T14:55:56.502Z,100893.13
2022-12-05T14:59:05.454Z,100894.97
2022-12-05T15:01:48.745Z,100899.31
2022-12-05T15:04:19.835Z,100901.81
2022-12-05T15:06:55.954Z,100897.88
2022-12-05T15:09:37.961Z,100902.91
2022-12-05T15:12:13.396Z,100892.63
2022-12-05T15:15:08.135Z,100901.50
2022-12-05T15:17:50.647Z,100900.47
2022-12-05T15:20:31.465Z,100903.31
2022-12-05T15:23:00.116Z,100900.66
2022-12-05T15:25:32.291Z,100902.53
2022-12-05T15:28:16.733Z,100907.69
2022-12-05T15:30:43.648Z,100905.75
2022-12-05T15:33:14.008Z,100902.41
2022-12-05T15:35:41.594Z,100907.72
2022-12-05T15:38:27.284Z,100904.25
2022-12-05T15:40:54.708Z,100905.22
2022-12-05T15:43:29.635Z,100899.94
2022-12-05T15:46:24.495Z,100900.22
2022-12-05T15:48:54.341Z,100899.75
2022-12-05T15:51:36.671Z,100900.88
2022-12-05T15:54:15.558Z,100907.91
2022-12-05T15:56:54.041Z,100913.59
2022-12-05T15:59:53.931Z,100911.31
2022-12-05T16:02:40.777Z,100911.41
2022-12-05T16:05:39.776Z,100906.69
2022-12-05T16:08:08.387Z,100916.31
2022-12-05T16:10:35.978Z,100914.56
2022-12-05T16:13:16.071Z,100906.81
2022-12-05T16:15:52.576Z,100914.47
2022-12-05T16:18:30.161Z,100915.47
2022-12-05T16:20:57.829Z,100914.03
2022-12-05T16:23:32.576Z,100912.19
2022-12-05T16:26:39.066Z,100918.59
2022-12-05T16:29:09.379Z,100926.91
2022-12-05T16:31:36.577Z,100927.28
2022-12-05T16:34:15.084Z,100921.94
2022-12-05T16:36:50.683Z,100925.38
2022-12-05T16:39:19.797Z,100926.91
2022-12-05T16:41:47.501Z,100931.00
2022-12-05T16:45:01.692Z,100926.44
2022-12-05T16:47:41.106Z,100925.69
2022-12-05T16:50:35.985Z,100915.13
2022-12-05T16:53:09.877Z,100925.81
2022-12-05T16:55:41.745Z,100922.06
2022-12-05T16:58:15.595Z,100929.69
2022-12-05T17:00:42.749Z,100925.44
2022-12-05T17:03:33.309Z,100930.16
2022-12-05T17:06:01.021Z,100935.28
2022-12-05T17:08:27.927Z,100933.84
2022-12-05T17:10:54.909Z,100939.56
2022-12-05T17:13:21.924Z,100939.94
2022-12-05T17:15:48.926Z,100936.13
2022-12-05T17:18:24.154Z,100941.63
2022-12-05T17:20:56.073Z,100935.16
2022-12-05T17:23:23.082Z,100931.13
2022-12-05T17:25:54.001Z,100938.59
2022-12-05T17:28:21.561Z,100931.88
2022-12-05T17:30:48.525Z,100944.75
2022-12-05T17:33:18.322Z,100944.31
2022-12-05T17:35:45.637Z,100946.69
2022-12-05T17:38:12.686Z,100947.97
2022-12-05T17:40:40.111Z,100946.28
2022-12-05T17:43:07.218Z,100952.31
2022-12-05T17:45:34.109Z,100955.34
2022-12-05T17:48:01.194Z,100950.94
2022-12-05T17:50:28.143Z,100950.25
2022-12-05T17:53:00.476Z,100953.47
2022-12-05T17:55:29.998Z,100945.53
2022-12-05T17:57:56.997Z,100954.91
2022-12-05T18:00:25.061Z,100955.13
2022-12-05T18:02:52.642Z,100952.94
2022-12-05T18:05:20.091Z,100951.09
2022-12-05T18:07:47.521Z,100950.56
2022-12-05T18:10:19.199Z,100947.97
2022-12-05T18:12:47.747Z,100957.19
2022-12-05T18:15:15.568Z,100956.97
2022-12-05T18:17:43.681Z,100952.47
2022-12-05T18:20:14.335Z,100960.31
2022-12-05T18:22:41.724Z,100953.28
2022-12-05T18:25:09.732Z,100960.53
2022-12-05T18:27:38.254Z,100958.41
2022-12-05T18:30:07.318Z,100962.75
2022-12-05T18:32:34.253Z,100959.78
2022-12-05T18:35:02.147Z,100958.94
2022-12-05T18:37:30.160Z,100955.31
2022-12-05T18:39:57.262Z,100958.25
2022-12-05T18:42:24.145Z,100962.47
2022-12-05T18:44:51.042Z,100965.41
2022-12-05T18:47:17.952Z,100958.25
2022-12-05T18:49:44.776Z,100952.94
2022-12-05T18:52:11.684Z,100955.13
2022-12-05T18:54:38.489Z,100950.13
2022-12-05T18:57:05.571Z,100954.38
2022-12-05T18:59:32.501Z,100956.88
2022-12-05T19:02:00.428Z,100958.25
2022-12-05T19:04:28.950Z,100953.06
2022-12-05T19:06:59.162Z,100953.38
2022-12-05T19:09:30.271Z,100956.97
2022-12-05T19:11:59.422Z,100954.91
2022-12-05T19:14:29.473Z,100949.72
2022-12-05T19:17:00.232Z,100955.31
2022-12-05T19:19:27.985Z,100956.19
2022-12-05T19:21:55.215Z,100951.00
2022-12-05T19:24:22.076Z,100953.44
2022-12-05T19:26:48.980Z,100957.22
2022-12-05T19:29:16.897Z,100962.56
2022-12-05T19:31:44.380Z,100964.50
2022-12-05T19:34:11.843Z,100962.75
2022-12-05T19:36:44.981Z,100968.25
2022-12-05T19:39:18.878Z,100958.94
2022-12-05T19:41:47.469Z,100963.88
2022-12-05T19:44:14.966Z,100960.63
2022-12-05T19:46:42.086Z,100966.47
2022-12-05T19:49:12.692Z,100963.06
2022-12-05T19:51:40.296Z,100968.25
2022-12-05T19:54:10.851Z,100963.53
2022-12-05T19:56:39.633Z,100968.31
2022-12-05T19:59:07.093Z,100963.06
2022-12-05T20:01:37.460Z,100964.81
2022-12-05T20:04:14.775Z,100963.63
2022-12-05T20:06:47.198Z,100955.97
2022-12-05T20:09:17.625Z,100951.69
2022-12-05T20:11:52.659Z,100962.44
2022-12-05T20:14:21.905Z,100958.13
2022-12-05T20:16:48.891Z,100964.06
2022-12-05T20:19:15.909Z,100962.59
2022-12-05T20:21:44.450Z,100970.84
2022-12-05T20:24:11.985Z,100962.78
2022-12-05T20:26:42.941Z,100970.59
2022-12-05T20:29:10.559Z,100971.59
2022-12-05T20:31:41.479Z,100965.47
2022-12-05T20:34:11.552Z,100975.63
2022-12-05T20:36:38.449Z,100976.94
2022-12-05T20:39:11.054Z,100978.00
2022-12-05T20:41:37.922Z,100974.72
2022-12-05T20:44:07.482Z,100977.00
2022-12-05T20:46:35.383Z,100981.66
2022-12-05T20:49:02.623Z,100975.50
2022-12-05T20:51:34.568Z,100983.28
2022-12-05T20:54:03.810Z,100978.63
2022-12-05T20:56:32.961Z,100978.53
2022-12-05T20:59:03.172Z,100984.25
2022-12-05T21:01:33.003Z,100973.25
2022-12-05T21:04:00.946Z,100977.88
2022-12-05T21:06:43.682Z,100980.50
2022-12-05T21:09:16.080Z,100980.38
2022-12-05T21:11:43.382Z,100972.06
2022-12-05T21:14:10.736Z,100977.88
2022-12-05T21:16:37.831Z,100979.66
2022-12-05T21:19:04.669Z,100973.97
2022-12-05T21:21:34.038Z,100969.06
2022-12-05T21:24:03.366Z,100968.09
2022-12-05T21:26:32.955Z,100966.44
2022-12-05T21:29:01.328Z,100973.91
2022-12-05T21:31:32.007Z,100968.00
2022-12-05T21:34:02.808Z,100962.75
2022-12-05T21:36:32.295Z,100964.28
2022-12-05T21:38:59.994Z,100955.94
2022-12-05T21:41:27.314Z,100970.38
2022-12-05T21:43:55.781Z,100968.25
2022-12-05T21:46:25.243Z,100969.78
2022-12-05T21:48:52.762Z,100968.09
2022-12-05T21:51:23.472Z,100968.72
2022-12-05T21:53:51.982Z,100957.56
2022-12-05T21:56:23.118Z,100961.03
2022-12-05T21:58:50.775Z,100961.38
2022-12-05T22:01:25.297Z,100963.44
2022-12-05T22:04:01.187Z,100971.63
2022-12-05T22:06:33.403Z,100973.50
2022-12-05T22:09:00.940Z,100973.59
2022-12-05T22:11:27.947Z,100971.66
2022-12-05T22:13:54.874Z,100977.25
2022-12-05T22:16:25.388Z,100973.72
2022-12-05T22:18:56.040Z,100963.22
2022-12-05T22:21:22.901Z,100970.22
2022-12-05T22:23:50.206Z,100969.16
2022-12-05T22:26:20.819Z,100962.06
2022-12-05T22:28:50.597Z,100965.59
2022-12-05T22:31:18.230Z,100966.44
2022-12-05T22:33:45.623Z,100963.84
2022-12-05T22:36:16.775Z,100962.00
2022-12-05T22:38:46.910Z,100964.09
2022-12-05T22:41:23.138Z,100965.66
2022-12-05T22:43:54.989Z,100957.41
2022-12-05T22:46:21.871Z,100954.53
2022-12-05T22:48:50.153Z,100952.44
2022-12-05T22:51:19.027Z,100954.59
2022-12-05T22:53:46.516Z,100960.09
2022-12-05T22:56:16.552Z,100955.28
2022-12-05T22:58:45.059Z,100948.13
2022-12-05T23:01:18.377Z,100951.94
2022-12-05T23:03:48.282Z,100947.03
2022-12-05T23:06:18.444Z,100953.91
2022-12-05T23:08:49.872Z,100950.03
2022-12-05T23:11:18.726Z,100947.34
2022-12-05T23:13:46.703Z,100941.78
2022-12-05T23:16:22.223Z,100942.78
2022-12-05T23:18:51.035Z,100946.97
2022-12-05T23:21:25.765Z,100935.53
2022-12-05T23:23:56.922Z,100937.59
2022-12-05T23:26:28.642Z,100938.34
2022-12-05T23:28:55.899Z,100936.34
2022-12-05T23:31:23.260Z,100938.88
2022-12-05T23:33:51.668Z,100941.25
2022-12-05T23:36:19.848Z,100938.47
2022-12-05T23:38:47.419Z,100935.16
2022-12-05T23:41:20.232Z,100927.91
2022-12-05T23:43:48.896Z,100925.81
2022-12-05T23:46:18.553Z,100931.97
2022-12-05T23:48:45.958Z,100934.16
2022-12-05T23:51:22.520Z,100929.81
2022-12-05T23:53:55.404Z,100933.00
2022-12-05T23:56:26.326Z,100936.59
2022-12-05T23:58:54.525Z,100929.81
